sensor_id;sensor_type;location;lat;lon;timestamp;pressure;altitude;pressure_sealevel;temperature;humidity
57250;BME280;43102;52.014;-0.680;2023-09-30T00:00:00;101623;;;19.02;53.23
57250;BME280;43102;52.014;-0.680;2023-09-30T00:01:00;101623;;;19.02;53.23
57250;BME280;43102;52.014;-0.680;2023-09-30T00:02:00;101623;;;19.02;53.23
57250;BME280;43102;52.014;-0.680;2023-09-30T00:03:00;101623;;;19.02;53.23
57250;BME280;43102;52.014;-0.680;2023-09-30T00:04:00;101645;;;19.01;53.20
57250;BME280;43102;52.014;-0.680;2023-09-30T00:05:00;101645;;;19.01;53.20
57250;BME280;43102;52.014;-0.680;2023-09-30T00:06:00;101645;;;19.01;53.20
57250;BME280;43102;52.014;-0.680;2023-09-30T00:07:00;101645;;;19.01;53.20
57250;BME280;43102;52.014;-0.680;2023-09-30T00:08:00;101645;;;19.01;53.20
57250;BME280;43102;52.014;-0.680;2023-09-30T00:09:00;101643;;;18.98;53.44
57250;BME280;43102;52.014;-0.680;2023-09-30T00:10:00;101643;;;18.98;53.44
57250;BME280;43102;52.014;-0.680;2023-09-30T00:11:00;101643;;;18.98;53.44
57250;BME280;43102;52.014;-0.680;2023-09-30T00:12:00;101643;;;18.98;53.44
57250;BME280;43102;52.014;-0.680;2023-09-30T00:13:00;101643;;;18.98;53.44
57250;BME280;43102;52.014;-0.680;2023-09-30T00:14:00;101624;;;18.92;53.62
57250;BME280;43102;52.014;-0.680;2023-09-30T00:15:00;101624;;;18.92;53.62
57250;BME280;43102;52.014;-0.680;2023-09-30T00:16:00;101624;;;18.92;53.62
57250;BME280;43102;52.014;-0.680;2023-09-30T00:17:00;101624;;;18.92;53.62
57250;BME280;43102;52.014;-0.680;2023-09-30T00:18:00;101624;;;18.92;53.62
57250;BME280;43102;52.014;-0.680;2023-09-30T00:19:00;101641;;;18.88;53.62
57250;BME280;43102;52.014;-0.680;2023-09-30T00:20:00;101641;;;18.88;53.62
57250;BME280;43102;52.014;-0.680;2023-09-30T00:21:00;101641;;;18.88;53.62
57250;BME280;43102;52.014;-0.680;2023-09-30T00:22:00;101641;;;18.88;53.62
57250;BME280;43102;52.014;-0.680;2023-09-30T00:23:00;101641;;;18.88;53.62
57250;BME280;43102;52.014;-0.680;2023-09-30T00:24:00;101672;;;18.88;53.66
57250;BME280;43102;52.014;-0.680;2023-09-30T00:25:00;101672;;;18.88;53.66
57250;BME280;43102;52.014;-0.680;2023-09-30T00:26:00;101672;;;18.88;53.66
57250;BME280;43102;52.014;-0.680;2023-09-30T00:27:00;101672;;;18.88;53.66
57250;BME280;43102;52.014;-0.680;2023-09-30T00:28:00;101672;;;18.88;53.66
57250;BME280;43102;52.014;-0.680;2023-09-30T00:29:00;101640;;;18.85;53.77
57250;BME280;43102;52.014;-0.680;2023-09-30T00:30:00;101640;;;18.85;53.77
57250;BME280;43102;52.014;-0.680;2023-09-30T00:31:00;101640;;;18.85;53.77
57250;BME280;43102;52.014;-0.680;2023-09-30T00:32:00;101640;;;18.85;53.77
57250;BME280;43102;52.014;-0.680;2023-09-30T00:33:00;101640;;;18.85;53.77
57250;BME280;43102;52.014;-0.680;2023-09-30T00:34:00;101640;;;18.86;53.73
57250;BME280;43102;52.014;-0.680;2023-09-30T00:35:01;101640;;;18.86;53.73
57250;BME280;43102;52.014;-0.680;2023-09-30T00:36:05;101640;;;18.86;53.73
57250;BME280;43102;52.014;-0.680;2023-09-30T00:37:00;101640;;;18.86;53.73
57250;BME280;43102;52.014;-0.680;2023-09-30T00:38:00;101640;;;18.86;53.73
57250;BME280;43102;52.014;-0.680;2023-09-30T00:39:00;101639;;;18.86;53.90
57250;BME280;43102;52.014;-0.680;2023-09-30T00:40:00;101639;;;18.86;53.90
57250;BME280;43102;52.014;-0.680;2023-09-30T00:41:00;101639;;;18.86;53.90
57250;BME280;43102;52.014;-0.680;2023-09-30T00:42:00;101639;;;18.86;53.90
57250;BME280;43102;52.014;-0.680;2023-09-30T00:43:00;101639;;;18.86;53.90
57250;BME280;43102;52.014;-0.680;2023-09-30T00:44:00;101650;;;18.90;53.75
57250;BME280;43102;52.014;-0.680;2023-09-30T00:45:00;101650;;;18.90;53.75
57250;BME280;43102;52.014;-0.680;2023-09-30T00:46:02;101650;;;18.90;53.75
57250;BME280;43102;52.014;-0.680;2023-09-30T00:47:00;101650;;;18.90;53.75
57250;BME280;43102;52.014;-0.680;2023-09-30T00:48:00;101650;;;18.90;53.75
57250;BME280;43102;52.014;-0.680;2023-09-30T00:49:00;101643;;;18.82;53.78
57250;BME280;43102;52.014;-0.680;2023-09-30T00:50:00;101643;;;18.82;53.78
57250;BME280;43102;52.014;-0.680;2023-09-30T00:51:00;101643;;;18.82;53.78
57250;BME280;43102;52.014;-0.680;2023-09-30T00:52:00;101643;;;18.82;53.78
57250;BME280;43102;52.014;-0.680;2023-09-30T00:53:00;101643;;;18.82;53.78
57250;BME280;43102;52.014;-0.680;2023-09-30T00:54:00;101637;;;18.74;53.88
57250;BME280;43102;52.014;-0.680;2023-09-30T00:55:00;101637;;;18.74;53.88
57250;BME280;43102;52.014;-0.680;2023-09-30T00:56:00;101637;;;18.74;53.88
57250;BME280;43102;52.014;-0.680;2023-09-30T00:57:00;101637;;;18.74;53.88
57250;BME280;43102;52.014;-0.680;2023-09-30T00:58:00;101637;;;18.74;53.88
57250;BME280;43102;52.014;-0.680;2023-09-30T00:59:00;101641;;;18.68;54.04
57250;BME280;43102;52.014;-0.680;2023-09-30T01:00:00;101641;;;18.68;54.04
57250;BME280;43102;52.014;-0.680;2023-09-30T01:01:00;101641;;;18.68;54.04
57250;BME280;43102;52.014;-0.680;2023-09-30T01:02:00;101641;;;18.68;54.04
57250;BME280;43102;52.014;-0.680;2023-09-30T01:03:00;101641;;;18.68;54.04
57250;BME280;43102;52.014;-0.680;2023-09-30T01:04:00;101648;;;18.68;54.18
57250;BME280;43102;52.014;-0.680;2023-09-30T01:05:00;101648;;;18.68;54.18
57250;BME280;43102;52.014;-0.680;2023-09-30T01:06:00;101648;;;18.68;54.18
57250;BME280;43102;52.014;-0.680;2023-09-30T01:07:00;101648;;;18.68;54.18
57250;BME280;43102;52.014;-0.680;2023-09-30T01:08:01;101648;;;18.68;54.18
57250;BME280;43102;52.014;-0.680;2023-09-30T01:09:00;101653;;;18.67;54.25
57250;BME280;43102;52.014;-0.680;2023-09-30T01:10:00;101653;;;18.67;54.25
57250;BME280;43102;52.014;-0.680;2023-09-30T01:11:00;101653;;;18.67;54.25
57250;BME280;43102;52.014;-0.680;2023-09-30T01:12:00;101653;;;18.67;54.25
57250;BME280;43102;52.014;-0.680;2023-09-30T01:13:00;101653;;;18.67;54.25
57250;BME280;43102;52.014;-0.680;2023-09-30T01:14:00;101647;;;18.66;54.27
57250;BME280;43102;52.014;-0.680;2023-09-30T01:15:00;101647;;;18.66;54.27
57250;BME280;43102;52.014;-0.680;2023-09-30T01:16:08;101647;;;18.66;54.27
57250;BME280;43102;52.014;-0.680;2023-09-30T01:17:00;101647;;;18.66;54.27
57250;BME280;43102;52.014;-0.680;2023-09-30T01:18:00;101647;;;18.66;54.27
57250;BME280;43102;52.014;-0.680;2023-09-30T01:19:00;101645;;;18.59;54.39
57250;BME280;43102;52.014;-0.680;2023-09-30T01:20:00;101645;;;18.59;54.39
57250;BME280;43102;52.014;-0.680;2023-09-30T01:21:03;101645;;;18.59;54.39
57250;BME280;43102;52.014;-0.680;2023-09-30T01:22:00;101645;;;18.59;54.39
57250;BME280;43102;52.014;-0.680;2023-09-30T01:23:00;101645;;;18.59;54.39
57250;BME280;43102;52.014;-0.680;2023-09-30T01:24:00;101643;;;18.63;54.19
57250;BME280;43102;52.014;-0.680;2023-09-30T01:25:00;101643;;;18.63;54.19
57250;BME280;43102;52.014;-0.680;2023-09-30T01:26:02;101643;;;18.63;54.19
57250;BME280;43102;52.014;-0.680;2023-09-30T01:27:00;101643;;;18.63;54.19
57250;BME280;43102;52.014;-0.680;2023-09-30T01:28:00;101643;;;18.63;54.19
57250;BME280;43102;52.014;-0.680;2023-09-30T01:29:00;101654;;;18.61;54.24
57250;BME280;43102;52.014;-0.680;2023-09-30T01:30:00;101654;;;18.61;54.24
57250;BME280;43102;52.014;-0.680;2023-09-30T01:31:00;101654;;;18.61;54.24
57250;BME280;43102;52.014;-0.680;2023-09-30T01:32:00;101654;;;18.61;54.24
57250;BME280;43102;52.014;-0.680;2023-09-30T01:33:00;101654;;;18.61;54.24
57250;BME280;43102;52.014;-0.680;2023-09-30T01:34:00;101648;;;18.62;54.23
57250;BME280;43102;52.014;-0.680;2023-09-30T01:35:00;101648;;;18.62;54.23
57250;BME280;43102;52.014;-0.680;2023-09-30T01:36:00;101648;;;18.62;54.23
57250;BME280;43102;52.014;-0.680;2023-09-30T01:37:00;101648;;;18.62;54.23
57250;BME280;43102;52.014;-0.680;2023-09-30T01:38:00;101648;;;18.62;54.23
57250;BME280;43102;52.014;-0.680;2023-09-30T01:39:00;101658;;;18.64;54.29
57250;BME280;43102;52.014;-0.680;2023-09-30T01:40:00;101658;;;18.64;54.29
57250;BME280;43102;52.014;-0.680;2023-09-30T01:41:00;101658;;;18.64;54.29
57250;BME280;43102;52.014;-0.680;2023-09-30T01:42:00;101658;;;18.64;54.29
57250;BME280;43102;52.014;-0.680;2023-09-30T01:43:00;101658;;;18.64;54.29
57250;BME280;43102;52.014;-0.680;2023-09-30T01:44:00;101642;;;18.65;54.20
57250;BME280;43102;52.014;-0.680;2023-09-30T01:45:00;101642;;;18.65;54.20
57250;BME280;43102;52.014;-0.680;2023-09-30T01:46:00;101642;;;18.65;54.20
57250;BME280;43102;52.014;-0.680;2023-09-30T01:47:00;101642;;;18.65;54.20
57250;BME280;43102;52.014;-0.680;2023-09-30T01:48:00;101642;;;18.65;54.20
57250;BME280;43102;52.014;-0.680;2023-09-30T01:49:00;101636;;;18.65;54.17
57250;BME280;43102;52.014;-0.680;2023-09-30T01:50:00;101636;;;18.65;54.17
57250;BME280;43102;52.014;-0.680;2023-09-30T01:51:00;101636;;;18.65;54.17
57250;BME280;43102;52.014;-0.680;2023-09-30T01:52:00;101636;;;18.65;54.17
57250;BME280;43102;52.014;-0.680;2023-09-30T01:53:00;101636;;;18.65;54.17
57250;BME280;43102;52.014;-0.680;2023-09-30T01:54:00;101624;;;18.59;54.16
57250;BME280;43102;52.014;-0.680;2023-09-30T01:55:00;101624;;;18.59;54.16
57250;BME280;43102;52.014;-0.680;2023-09-30T01:56:00;101624;;;18.59;54.16
57250;BME280;43102;52.014;-0.680;2023-09-30T01:57:00;101624;;;18.59;54.16
57250;BME280;43102;52.014;-0.680;2023-09-30T01:58:00;101624;;;18.59;54.16
57250;BME280;43102;52.014;-0.680;2023-09-30T01:59:00;101613;;;18.57;54.22
57250;BME280;43102;52.014;-0.680;2023-09-30T02:00:00;101613;;;18.57;54.22
57250;BME280;43102;52.014;-0.680;2023-09-30T02:01:03;101613;;;18.57;54.22
57250;BME280;43102;52.014;-0.680;2023-09-30T02:02:00;101613;;;18.57;54.22
57250;BME280;43102;52.014;-0.680;2023-09-30T02:03:00;101613;;;18.57;54.22
57250;BME280;43102;52.014;-0.680;2023-09-30T02:04:00;101614;;;18.60;54.07
57250;BME280;43102;52.014;-0.680;2023-09-30T02:05:00;101614;;;18.60;54.07
57250;BME280;43102;52.014;-0.680;2023-09-30T02:06:00;101614;;;18.60;54.07
57250;BME280;43102;52.014;-0.680;2023-09-30T02:07:00;101614;;;18.60;54.07
57250;BME280;43102;52.014;-0.680;2023-09-30T02:08:00;101614;;;18.60;54.07
57250;BME280;43102;52.014;-0.680;2023-09-30T02:09:00;101619;;;18.56;54.40
57250;BME280;43102;52.014;-0.680;2023-09-30T02:10:00;101619;;;18.56;54.40
57250;BME280;43102;52.014;-0.680;2023-09-30T02:11:00;101619;;;18.56;54.40
57250;BME280;43102;52.014;-0.680;2023-09-30T02:12:00;101619;;;18.56;54.40
57250;BME280;43102;52.014;-0.680;2023-09-30T02:13:00;101619;;;18.56;54.40
57250;BME280;43102;52.014;-0.680;2023-09-30T02:14:01;101621;;;18.52;54.24
57250;BME280;43102;52.014;-0.680;2023-09-30T02:15:00;101621;;;18.52;54.24
57250;BME280;43102;52.014;-0.680;2023-09-30T02:16:00;101621;;;18.52;54.24
57250;BME280;43102;52.014;-0.680;2023-09-30T02:17:00;101621;;;18.52;54.24
57250;BME280;43102;52.014;-0.680;2023-09-30T02:18:00;101621;;;18.52;54.24
57250;BME280;43102;52.014;-0.680;2023-09-30T02:19:00;101615;;;18.52;54.19
57250;BME280;43102;52.014;-0.680;2023-09-30T02:20:00;101615;;;18.52;54.19
57250;BME280;43102;52.014;-0.680;2023-09-30T02:21:00;101615;;;18.52;54.19
57250;BME280;43102;52.014;-0.680;2023-09-30T02:22:00;101615;;;18.52;54.19
57250;BME280;43102;52.014;-0.680;2023-09-30T02:23:00;101615;;;18.52;54.19
57250;BME280;43102;52.014;-0.680;2023-09-30T02:24:00;101610;;;18.41;54.61
57250;BME280;43102;52.014;-0.680;2023-09-30T02:25:00;101610;;;18.41;54.61
57250;BME280;43102;52.014;-0.680;2023-09-30T02:26:00;101610;;;18.41;54.61
57250;BME280;43102;52.014;-0.680;2023-09-30T02:27:00;101610;;;18.41;54.61
57250;BME280;43102;52.014;-0.680;2023-09-30T02:28:00;101610;;;18.41;54.61
57250;BME280;43102;52.014;-0.680;2023-09-30T02:29:00;101616;;;18.44;54.34
57250;BME280;43102;52.014;-0.680;2023-09-30T02:30:00;101616;;;18.44;54.34
57250;BME280;43102;52.014;-0.680;2023-09-30T02:31:00;101616;;;18.44;54.34
57250;BME280;43102;52.014;-0.680;2023-09-30T02:32:00;101616;;;18.44;54.34
57250;BME280;43102;52.014;-0.680;2023-09-30T02:33:00;101616;;;18.44;54.34
57250;BME280;43102;52.014;-0.680;2023-09-30T02:34:00;101616;;;18.40;54.37
57250;BME280;43102;52.014;-0.680;2023-09-30T02:35:00;101616;;;18.40;54.37
57250;BME280;43102;52.014;-0.680;2023-09-30T02:36:00;101616;;;18.40;54.37
57250;BME280;43102;52.014;-0.680;2023-09-30T02:37:00;101616;;;18.40;54.37
57250;BME280;43102;52.014;-0.680;2023-09-30T02:38:00;101616;;;18.40;54.37
57250;BME280;43102;52.014;-0.680;2023-09-30T02:39:00;101609;;;18.35;54.69
57250;BME280;43102;52.014;-0.680;2023-09-30T02:40:00;101609;;;18.35;54.69
57250;BME280;43102;52.014;-0.680;2023-09-30T02:41:00;101609;;;18.35;54.69
57250;BME280;43102;52.014;-0.680;2023-09-30T02:42:00;101609;;;18.35;54.69
57250;BME280;43102;52.014;-0.680;2023-09-30T02:43:00;101609;;;18.35;54.69
57250;BME280;43102;52.014;-0.680;2023-09-30T02:44:00;101594;;;18.36;54.68
57250;BME280;43102;52.014;-0.680;2023-09-30T02:45:00;101594;;;18.36;54.68
57250;BME280;43102;52.014;-0.680;2023-09-30T02:46:00;101594;;;18.36;54.68
57250;BME280;43102;52.014;-0.680;2023-09-30T02:47:00;101594;;;18.36;54.68
57250;BME280;43102;52.014;-0.680;2023-09-30T02:48:00;101594;;;18.36;54.68
57250;BME280;43102;52.014;-0.680;2023-09-30T02:49:01;101603;;;18.35;54.63
57250;BME280;43102;52.014;-0.680;2023-09-30T02:50:00;101603;;;18.35;54.63
57250;BME280;43102;52.014;-0.680;2023-09-30T02:51:00;101603;;;18.35;54.63
57250;BME280;43102;52.014;-0.680;2023-09-30T02:52:00;101603;;;18.35;54.63
57250;BME280;43102;52.014;-0.680;2023-09-30T02:53:00;101603;;;18.35;54.63
57250;BME280;43102;52.014;-0.680;2023-09-30T02:54:00;101611;;;18.30;54.81
57250;BME280;43102;52.014;-0.680;2023-09-30T02:55:00;101611;;;18.30;54.81
57250;BME280;43102;52.014;-0.680;2023-09-30T02:56:00;101611;;;18.30;54.81
57250;BME280;43102;52.014;-0.680;2023-09-30T02:57:00;101611;;;18.30;54.81
57250;BME280;43102;52.014;-0.680;2023-09-30T02:58:00;101611;;;18.30;54.81
57250;BME280;43102;52.014;-0.680;2023-09-30T02:59:00;101614;;;18.30;54.73
57250;BME280;43102;52.014;-0.680;2023-09-30T03:00:00;101614;;;18.30;54.73
57250;BME280;43102;52.014;-0.680;2023-09-30T03:01:00;101614;;;18.30;54.73
57250;BME280;43102;52.014;-0.680;2023-09-30T03:02:00;101614;;;18.30;54.73
57250;BME280;43102;52.014;-0.680;2023-09-30T03:03:01;101614;;;18.30;54.73
57250;BME280;43102;52.014;-0.680;2023-09-30T03:04:00;101598;;;18.28;54.72
57250;BME280;43102;52.014;-0.680;2023-09-30T03:05:00;101598;;;18.28;54.72
57250;BME280;43102;52.014;-0.680;2023-09-30T03:06:00;101598;;;18.28;54.72
57250;BME280;43102;52.014;-0.680;2023-09-30T03:07:00;101598;;;18.28;54.72
57250;BME280;43102;52.014;-0.680;2023-09-30T03:08:00;101598;;;18.28;54.72
57250;BME280;43102;52.014;-0.680;2023-09-30T03:09:00;101606;;;18.23;54.98
57250;BME280;43102;52.014;-0.680;2023-09-30T03:10:00;101606;;;18.23;54.98
57250;BME280;43102;52.014;-0.680;2023-09-30T03:11:00;101606;;;18.23;54.98
57250;BME280;43102;52.014;-0.680;2023-09-30T03:12:00;101606;;;18.23;54.98
57250;BME280;43102;52.014;-0.680;2023-09-30T03:13:00;101606;;;18.23;54.98
57250;BME280;43102;52.014;-0.680;2023-09-30T03:14:01;101612;;;18.23;54.96
57250;BME280;43102;52.014;-0.680;2023-09-30T03:15:00;101612;;;18.23;54.96
57250;BME280;43102;52.014;-0.680;2023-09-30T03:16:00;101612;;;18.23;54.96
57250;BME280;43102;52.014;-0.680;2023-09-30T03:17:00;101612;;;18.23;54.96
57250;BME280;43102;52.014;-0.680;2023-09-30T03:18:00;101612;;;18.23;54.96
57250;BME280;43102;52.014;-0.680;2023-09-30T03:19:00;101607;;;18.22;54.89
57250;BME280;43102;52.014;-0.680;2023-09-30T03:20:00;101607;;;18.22;54.89
57250;BME280;43102;52.014;-0.680;2023-09-30T03:21:01;101607;;;18.22;54.89
57250;BME280;43102;52.014;-0.680;2023-09-30T03:22:00;101607;;;18.22;54.89
57250;BME280;43102;52.014;-0.680;2023-09-30T03:23:00;101607;;;18.22;54.89
57250;BME280;43102;52.014;-0.680;2023-09-30T03:24:01;101611;;;18.18;54.98
57250;BME280;43102;52.014;-0.680;2023-09-30T03:25:00;101611;;;18.18;54.98
57250;BME280;43102;52.014;-0.680;2023-09-30T03:26:00;101611;;;18.18;54.98
57250;BME280;43102;52.014;-0.680;2023-09-30T03:27:00;101611;;;18.18;54.98
57250;BME280;43102;52.014;-0.680;2023-09-30T03:28:00;101611;;;18.18;54.98
57250;BME280;43102;52.014;-0.680;2023-09-30T03:29:00;101611;;;18.20;55.08
57250;BME280;43102;52.014;-0.680;2023-09-30T03:30:01;101611;;;18.20;55.08
57250;BME280;43102;52.014;-0.680;2023-09-30T03:31:00;101611;;;18.20;55.08
57250;BME280;43102;52.014;-0.680;2023-09-30T03:32:00;101611;;;18.20;55.08
57250;BME280;43102;52.014;-0.680;2023-09-30T03:33:00;101611;;;18.20;55.08
57250;BME280;43102;52.014;-0.680;2023-09-30T03:34:00;101619;;;18.19;55.08
57250;BME280;43102;52.014;-0.680;2023-09-30T03:35:00;101619;;;18.19;55.08
57250;BME280;43102;52.014;-0.680;2023-09-30T03:36:00;101619;;;18.19;55.08
57250;BME280;43102;52.014;-0.680;2023-09-30T03:37:00;101619;;;18.19;55.08
57250;BME280;43102;52.014;-0.680;2023-09-30T03:38:00;101619;;;18.19;55.08
57250;BME280;43102;52.014;-0.680;2023-09-30T03:39:00;101610;;;18.10;55.47
57250;BME280;43102;52.014;-0.680;2023-09-30T03:40:00;101610;;;18.10;55.47
57250;BME280;43102;52.014;-0.680;2023-09-30T03:41:00;101610;;;18.10;55.47
57250;BME280;43102;52.014;-0.680;2023-09-30T03:42:00;101610;;;18.10;55.47
57250;BME280;43102;52.014;-0.680;2023-09-30T03:43:00;101610;;;18.10;55.47
57250;BME280;43102;52.014;-0.680;2023-09-30T03:44:00;101602;;;18.15;55.03
57250;BME280;43102;52.014;-0.680;2023-09-30T03:45:00;101602;;;18.15;55.03
57250;BME280;43102;52.014;-0.680;2023-09-30T03:46:00;101602;;;18.15;55.03
57250;BME280;43102;52.014;-0.680;2023-09-30T03:47:00;101602;;;18.15;55.03
57250;BME280;43102;52.014;-0.680;2023-09-30T03:48:00;101602;;;18.15;55.03
57250;BME280;43102;52.014;-0.680;2023-09-30T03:49:00;101592;;;18.07;55.21
57250;BME280;43102;52.014;-0.680;2023-09-30T03:50:00;101592;;;18.07;55.21
57250;BME280;43102;52.014;-0.680;2023-09-30T03:51:07;101592;;;18.07;55.21
57250;BME280;43102;52.014;-0.680;2023-09-30T03:52:00;101592;;;18.07;55.21
57250;BME280;43102;52.014;-0.680;2023-09-30T03:53:01;101592;;;18.07;55.21
57250;BME280;43102;52.014;-0.680;2023-09-30T03:54:00;101593;;;18.06;55.34
57250;BME280;43102;52.014;-0.680;2023-09-30T03:55:00;101593;;;18.06;55.34
57250;BME280;43102;52.014;-0.680;2023-09-30T03:56:00;101593;;;18.06;55.34
57250;BME280;43102;52.014;-0.680;2023-09-30T03:57:00;101593;;;18.06;55.34
57250;BME280;43102;52.014;-0.680;2023-09-30T03:58:00;101593;;;18.06;55.34
57250;BME280;43102;52.014;-0.680;2023-09-30T03:59:00;101598;;;18.07;55.29
57250;BME280;43102;52.014;-0.680;2023-09-30T04:00:00;101598;;;18.07;55.29
57250;BME280;43102;52.014;-0.680;2023-09-30T04:01:00;101598;;;18.07;55.29
57250;BME280;43102;52.014;-0.680;2023-09-30T04:02:00;101598;;;18.07;55.29
57250;BME280;43102;52.014;-0.680;2023-09-30T04:03:00;101598;;;18.07;55.29
57250;BME280;43102;52.014;-0.680;2023-09-30T04:04:00;101587;;;18.05;55.42
57250;BME280;43102;52.014;-0.680;2023-09-30T04:05:00;101587;;;18.05;55.42
57250;BME280;43102;52.014;-0.680;2023-09-30T04:06:01;101587;;;18.05;55.42
57250;BME280;43102;52.014;-0.680;2023-09-30T04:07:00;101587;;;18.05;55.42
57250;BME280;43102;52.014;-0.680;2023-09-30T04:08:00;101587;;;18.05;55.42
57250;BME280;43102;52.014;-0.680;2023-09-30T04:09:00;101590;;;18.02;55.69
57250;BME280;43102;52.014;-0.680;2023-09-30T04:10:00;101590;;;18.02;55.69
57250;BME280;43102;52.014;-0.680;2023-09-30T04:11:00;101590;;;18.02;55.69
57250;BME280;43102;52.014;-0.680;2023-09-30T04:12:00;101590;;;18.02;55.69
57250;BME280;43102;52.014;-0.680;2023-09-30T04:13:00;101590;;;18.02;55.69
57250;BME280;43102;52.014;-0.680;2023-09-30T04:14:00;101579;;;18.01;55.61
57250;BME280;43102;52.014;-0.680;2023-09-30T04:15:00;101579;;;18.01;55.61
57250;BME280;43102;52.014;-0.680;2023-09-30T04:16:00;101579;;;18.01;55.61
57250;BME280;43102;52.014;-0.680;2023-09-30T04:17:00;101579;;;18.01;55.61
57250;BME280;43102;52.014;-0.680;2023-09-30T04:18:00;101579;;;18.01;55.61
57250;BME280;43102;52.014;-0.680;2023-09-30T04:19:00;101590;;;18.00;55.59
57250;BME280;43102;52.014;-0.680;2023-09-30T04:20:00;101590;;;18.00;55.59
57250;BME280;43102;52.014;-0.680;2023-09-30T04:21:00;101590;;;18.00;55.59
57250;BME280;43102;52.014;-0.680;2023-09-30T04:22:00;101590;;;18.00;55.59
57250;BME280;43102;52.014;-0.680;2023-09-30T04:23:00;101590;;;18.00;55.59
57250;BME280;43102;52.014;-0.680;2023-09-30T04:24:00;101601;;;17.99;55.57
57250;BME280;43102;52.014;-0.680;2023-09-30T04:25:00;101601;;;17.99;55.57
57250;BME280;43102;52.014;-0.680;2023-09-30T04:26:00;101601;;;17.99;55.57
57250;BME280;43102;52.014;-0.680;2023-09-30T04:27:00;101601;;;17.99;55.57
57250;BME280;43102;52.014;-0.680;2023-09-30T04:28:00;101601;;;17.99;55.57
57250;BME280;43102;52.014;-0.680;2023-09-30T04:29:00;101598;;;17.96;55.52
57250;BME280;43102;52.014;-0.680;2023-09-30T04:30:00;101598;;;17.96;55.52
57250;BME280;43102;52.014;-0.680;2023-09-30T04:31:00;101598;;;17.96;55.52
57250;BME280;43102;52.014;-0.680;2023-09-30T04:32:00;101598;;;17.96;55.52
57250;BME280;43102;52.014;-0.680;2023-09-30T04:33:00;101598;;;17.96;55.52
57250;BME280;43102;52.014;-0.680;2023-09-30T04:34:00;101609;;;17.96;55.35
57250;BME280;43102;52.014;-0.680;2023-09-30T04:35:00;101609;;;17.96;55.35
57250;BME280;43102;52.014;-0.680;2023-09-30T04:36:00;101609;;;17.96;55.35
57250;BME280;43102;52.014;-0.680;2023-09-30T04:37:00;101609;;;17.96;55.35
57250;BME280;43102;52.014;-0.680;2023-09-30T04:38:00;101609;;;17.96;55.35
57250;BME280;43102;52.014;-0.680;2023-09-30T04:39:00;101611;;;17.93;55.62
57250;BME280;43102;52.014;-0.680;2023-09-30T04:40:00;101611;;;17.93;55.62
57250;BME280;43102;52.014;-0.680;2023-09-30T04:41:00;101611;;;17.93;55.62
57250;BME280;43102;52.014;-0.680;2023-09-30T04:42:00;101611;;;17.93;55.62
57250;BME280;43102;52.014;-0.680;2023-09-30T04:43:00;101611;;;17.93;55.62
57250;BME280;43102;52.014;-0.680;2023-09-30T04:44:00;101615;;;17.93;55.70
57250;BME280;43102;52.014;-0.680;2023-09-30T04:45:00;101615;;;17.93;55.70
57250;BME280;43102;52.014;-0.680;2023-09-30T04:46:00;101615;;;17.93;55.70
57250;BME280;43102;52.014;-0.680;2023-09-30T04:47:00;101615;;;17.93;55.70
57250;BME280;43102;52.014;-0.680;2023-09-30T04:48:00;101615;;;17.93;55.70
57250;BME280;43102;52.014;-0.680;2023-09-30T04:49:00;101613;;;17.92;55.62
57250;BME280;43102;52.014;-0.680;2023-09-30T04:50:00;101613;;;17.92;55.62
57250;BME280;43102;52.014;-0.680;2023-09-30T04:51:00;101613;;;17.92;55.62
57250;BME280;43102;52.014;-0.680;2023-09-30T04:52:00;101613;;;17.92;55.62
57250;BME280;43102;52.014;-0.680;2023-09-30T04:53:00;101613;;;17.92;55.62
57250;BME280;43102;52.014;-0.680;2023-09-30T04:54:00;101610;;;17.77;55.88
57250;BME280;43102;52.014;-0.680;2023-09-30T04:55:00;101610;;;17.77;55.88
57250;BME280;43102;52.014;-0.680;2023-09-30T04:56:00;101610;;;17.77;55.88
57250;BME280;43102;52.014;-0.680;2023-09-30T04:57:00;101610;;;17.77;55.88
57250;BME280;43102;52.014;-0.680;2023-09-30T04:58:00;101610;;;17.77;55.88
57250;BME280;43102;52.014;-0.680;2023-09-30T04:59:00;101584;;;17.84;55.60
57250;BME280;43102;52.014;-0.680;2023-09-30T05:00:00;101584;;;17.84;55.60
57250;BME280;43102;52.014;-0.680;2023-09-30T05:01:00;101584;;;17.84;55.60
57250;BME280;43102;52.014;-0.680;2023-09-30T05:02:00;101584;;;17.84;55.60
57250;BME280;43102;52.014;-0.680;2023-09-30T05:03:00;101584;;;17.84;55.60
57250;BME280;43102;52.014;-0.680;2023-09-30T05:04:00;101588;;;17.81;55.64
57250;BME280;43102;52.014;-0.680;2023-09-30T05:05:00;101588;;;17.81;55.64
57250;BME280;43102;52.014;-0.680;2023-09-30T05:06:00;101588;;;17.81;55.64
57250;BME280;43102;52.014;-0.680;2023-09-30T05:07:00;101588;;;17.81;55.64
57250;BME280;43102;52.014;-0.680;2023-09-30T05:08:00;101588;;;17.81;55.64
57250;BME280;43102;52.014;-0.680;2023-09-30T05:09:00;101605;;;17.83;55.48
57250;BME280;43102;52.014;-0.680;2023-09-30T05:10:00;101605;;;17.83;55.48
57250;BME280;43102;52.014;-0.680;2023-09-30T05:11:00;101605;;;17.83;55.48
57250;BME280;43102;52.014;-0.680;2023-09-30T05:12:00;101605;;;17.83;55.48
57250;BME280;43102;52.014;-0.680;2023-09-30T05:13:00;101605;;;17.83;55.48
57250;BME280;43102;52.014;-0.680;2023-09-30T05:14:00;101592;;;17.68;55.76
57250;BME280;43102;52.014;-0.680;2023-09-30T05:15:00;101592;;;17.68;55.76
57250;BME280;43102;52.014;-0.680;2023-09-30T05:16:00;101592;;;17.68;55.76
57250;BME280;43102;52.014;-0.680;2023-09-30T05:17:00;101592;;;17.68;55.76
57250;BME280;43102;52.014;-0.680;2023-09-30T05:18:00;101592;;;17.68;55.76
57250;BME280;43102;52.014;-0.680;2023-09-30T05:19:00;101596;;;17.63;55.66
57250;BME280;43102;52.014;-0.680;2023-09-30T05:20:01;101596;;;17.63;55.66
57250;BME280;43102;52.014;-0.680;2023-09-30T05:21:00;101596;;;17.63;55.66